GUC weather

Gunnison Crested Butte Regional Airport
Gunnison, Colorado, United States

Public forecast

Using degrees Fahrenheit for public forecast. Weather courtesy of forecast.io.

METAR (pilot weather report)

Retrieved 2019/09/20 16:56 UTC (8 minutes ago):

KGUC 201656Z AUTO 32003KT 10SM CLR 18/02 A3006 RMK AO2 SLP094 T01780017

TAF (pilot weather forecast)

Retrieved 2019/09/20 12:22 UTC (5 hours ago):

TAF KGUC 201120Z 2012/2112 36007KT P6SM SCT110 FM201600 15007KT P6SM SCT110 FM201800 23013G22KT P6SM FEW080 SCT100 FM210100 25013G22KT P6SM FEW200 FM210200 26009KT P6SM FEW250